createdAt,value
2022-10-08T00:00:26.331Z,5.65
2022-10-08T00:02:57.031Z,4.20
2022-10-08T00:05:24.568Z,6.85
2022-10-08T00:07:52.234Z,3.03
2022-10-08T00:10:19.668Z,7.88
2022-10-08T00:12:47.817Z,4.15
2022-10-08T00:15:15.664Z,6.05
2022-10-08T00:17:44.405Z,5.55
2022-10-08T00:20:11.735Z,3.60
2022-10-08T00:22:39.939Z,3.60
2022-10-08T00:25:08.457Z,4.28
2022-10-08T00:27:35.766Z,9.63
2022-10-08T00:30:04.887Z,7.18
2022-10-08T00:32:32.300Z,6.40
2022-10-08T00:35:00.437Z,6.63
2022-10-08T00:37:27.757Z,4.93
2022-10-08T00:39:55.357Z,4.93
2022-10-08T00:42:22.683Z,6.10
2022-10-08T00:44:55.512Z,4.78
2022-10-08T00:47:25.900Z,17.30
2022-10-08T00:49:55.573Z,3.85
2022-10-08T00:52:24.782Z,3.85
2022-10-08T00:54:52.321Z,4.30
2022-10-08T00:57:21.393Z,7.13
2022-10-08T00:59:49.995Z,4.70
2022-10-08T01:02:18.297Z,4.50
2022-10-08T01:04:46.302Z,3.47
2022-10-08T01:07:23.927Z,7.88
2022-10-08T01:09:54.516Z,6.75
2022-10-08T01:12:33.453Z,6.50
2022-10-08T01:15:06.982Z,2.83
2022-10-08T01:17:50.273Z,4.25
2022-10-08T01:20:27.535Z,4.30
2022-10-08T01:23:01.853Z,8.57
2022-10-08T01:25:35.822Z,6.10
2022-10-08T01:28:14.109Z,5.72
2022-10-08T01:30:45.422Z,5.07
2022-10-08T01:33:16.874Z,7.47
2022-10-08T01:35:47.318Z,5.95
2022-10-08T01:38:17.798Z,4.43
2022-10-08T01:40:46.235Z,4.97
2022-10-08T01:43:16.701Z,5.28
2022-10-08T01:45:51.080Z,3.45
2022-10-08T01:48:23.070Z,5.50
2022-10-08T01:50:50.532Z,3.40
2022-10-08T01:53:18.853Z,6.13
2022-10-08T01:55:51.529Z,4.47
2022-10-08T01:58:21.828Z,6.93
2022-10-08T02:00:50.846Z,5.90
2022-10-08T02:03:19.021Z,4.25
2022-10-08T02:05:50.572Z,5.72
2022-10-08T02:08:18.793Z,3.78
2022-10-08T02:10:46.153Z,5.88
2022-10-08T02:13:14.595Z,5.97
2022-10-08T02:15:54.394Z,7.07
2022-10-08T02:18:29.101Z,2.95
2022-10-08T02:20:56.660Z,4.43
2022-10-08T02:23:30.820Z,3.92
2022-10-08T02:26:02.384Z,5.18
2022-10-08T02:28:33.257Z,5.05
2022-10-08T02:31:09.566Z,5.13
2022-10-08T02:34:03.849Z,3.33
2022-10-08T02:36:35.315Z,3.30
2022-10-08T02:39:08.758Z,4.07
2022-10-08T02:41:41.870Z,4.63
2022-10-08T02:44:11.137Z,3.47
2022-10-08T02:46:42.783Z,3.00
2022-10-08T02:49:15.553Z,2.85
2022-10-08T02:51:45.897Z,2.10
2022-10-08T02:54:13.646Z,2.90
2022-10-08T02:56:51.983Z,2.00
2022-10-08T02:59:21.179Z,3.47
2022-10-08T03:01:48.527Z,2.30
2022-10-08T03:04:33.620Z,5.35
2022-10-08T03:07:01.379Z,4.63
2022-10-08T03:09:40.133Z,3.55
2022-10-08T03:12:07.719Z,6.35
2022-10-08T03:14:46.681Z,1.60
2022-10-08T03:17:15.131Z,2.47
2022-10-08T03:19:42.670Z,3.50
2022-10-08T03:22:10.177Z,2.35
2022-10-08T03:24:38.407Z,2.88
2022-10-08T03:27:05.802Z,3.45
2022-10-08T03:29:33.985Z,2.05
2022-10-08T03:32:01.313Z,2.97
2022-10-08T03:34:28.855Z,2.67
2022-10-08T03:36:56.384Z,2.80
2022-10-08T03:39:23.799Z,5.13
2022-10-08T03:41:51.583Z,3.53
2022-10-08T03:44:18.953Z,4.53
2022-10-08T03:46:46.495Z,3.80
2022-10-08T03:49:16.955Z,3.80
2022-10-08T03:51:44.263Z,5.10
2022-10-08T03:54:11.844Z,4.45
2022-10-08T03:56:39.362Z,5.32
2022-10-08T03:59:07.660Z,3.55
2022-10-08T04:01:35.095Z,7.40
2022-10-08T04:04:02.487Z,5.25
2022-10-08T04:06:30.036Z,7.82
2022-10-08T04:09:01.197Z,5.82
2022-10-08T04:11:29.475Z,8.05
2022-10-08T04:13:56.864Z,6.60
2022-10-08T04:16:24.536Z,3.55
2022-10-08T04:18:51.866Z,4.55
2022-10-08T04:21:19.562Z,5.35
2022-10-08T04:23:47.507Z,5.90
2022-10-08T04:26:15.256Z,5.63
2022-10-08T04:28:44.746Z,4.97
2022-10-08T04:31:13.497Z,5.32
2022-10-08T04:33:41.929Z,5.43
2022-10-08T04:36:10.315Z,6.22
2022-10-08T04:38:37.776Z,4.65
2022-10-08T04:41:16.268Z,4.82
2022-10-08T04:43:44.367Z,4.97
2022-10-08T04:46:13.133Z,6.22
2022-10-08T04:48:40.826Z,4.22
2022-10-08T04:51:10.750Z,6.32
2022-10-08T04:53:38.599Z,3.67
2022-10-08T04:56:13.055Z,6.20
2022-10-08T04:58:40.832Z,4.03
2022-10-08T05:01:09.401Z,3.60
2022-10-08T05:03:38.494Z,6.15
2022-10-08T05:06:06.269Z,3.30
2022-10-08T05:08:34.270Z,4.78
2022-10-08T05:11:01.583Z,3.45
2022-10-08T05:13:30.156Z,9.38
2022-10-08T05:15:57.548Z,5.63
2022-10-08T05:18:25.695Z,4.95
2022-10-08T05:20:53.054Z,5.07
2022-10-08T05:23:20.484Z,4.00
2022-10-08T05:25:49.057Z,4.13
2022-10-08T05:28:16.440Z,6.75
2022-10-08T05:30:44.742Z,6.60
2022-10-08T05:33:12.094Z,5.85
2022-10-08T05:35:39.667Z,6.43
2022-10-08T05:38:06.990Z,5.43
2022-10-08T05:40:34.505Z,5.63
2022-10-08T05:43:01.862Z,4.68
2022-10-08T05:45:29.459Z,3.22
2022-10-08T05:47:56.869Z,5.00
2022-10-08T05:50:24.289Z,5.15
2022-10-08T05:52:51.858Z,3.92
2022-10-08T05:55:19.488Z,4.63
2022-10-08T05:57:47.576Z,6.60
2022-10-08T06:00:15.334Z,4.97
2022-10-08T06:02:42.894Z,4.18
2022-10-08T06:05:10.322Z,5.43
2022-10-08T06:07:38.463Z,3.83
2022-10-08T06:10:06.090Z,5.13
2022-10-08T06:12:33.696Z,5.35
2022-10-08T06:15:01.183Z,6.13
2022-10-08T06:17:28.533Z,6.30
2022-10-08T06:19:57.362Z,10.23
2022-10-08T06:22:24.760Z,46.00
2022-10-08T06:25:00.343Z,12.73
2022-10-08T06:27:28.646Z,15.30
2022-10-08T06:29:56.198Z,15.15
2022-10-08T06:32:23.491Z,9.88
2022-10-08T06:34:51.124Z,15.85
2022-10-08T06:37:18.501Z,12.27
2022-10-08T06:39:48.467Z,14.68
2022-10-08T06:42:16.255Z,25.25
2022-10-08T06:44:43.634Z,32.63
2022-10-08T06:47:11.385Z,10.52
2022-10-08T06:49:39.962Z,13.05
2022-10-08T06:52:08.168Z,10.35
2022-10-08T06:54:35.705Z,9.68
2022-10-08T06:57:03.929Z,7.82
2022-10-08T06:59:31.588Z,9.02
2022-10-08T07:01:59.455Z,14.05
2022-10-08T07:04:27.201Z,8.07
2022-10-08T07:06:54.585Z,8.95
2022-10-08T07:09:22.043Z,14.27
2022-10-08T07:11:49.373Z,11.23
2022-10-08T07:14:19.714Z,11.50
2022-10-08T07:16:47.972Z,9.98
2022-10-08T07:19:16.030Z,10.32
2022-10-08T07:21:43.512Z,13.02
2022-10-08T07:24:10.899Z,8.75
2022-10-08T07:26:39.075Z,9.32
2022-10-08T07:29:13.498Z,11.38
2022-10-08T07:31:42.401Z,11.97
2022-10-08T07:34:12.673Z,12.05
2022-10-08T07:36:41.550Z,11.65
2022-10-08T07:39:10.159Z,9.95
2022-10-08T07:41:38.394Z,11.50
2022-10-08T07:44:06.039Z,12.73
2022-10-08T07:46:34.495Z,11.68
2022-10-08T07:49:02.801Z,10.15
2022-10-08T07:51:31.633Z,29.58
2022-10-08T07:54:02.583Z,15.02
2022-10-08T07:56:30.793Z,16.02
2022-10-08T07:58:59.334Z,13.68
2022-10-08T08:01:28.854Z,15.82
2022-10-08T08:03:57.729Z,18.17
2022-10-08T08:06:25.779Z,15.90
2022-10-08T08:08:53.601Z,17.58
2022-10-08T08:11:24.076Z,15.48
2022-10-08T08:13:51.648Z,30.98
2022-10-08T08:16:20.415Z,25.05
2022-10-08T08:18:49.243Z,29.02
2022-10-08T08:21:23.643Z,14.35
2022-10-08T08:23:52.807Z,9.77
2022-10-08T08:26:23.695Z,7.47
2022-10-08T08:28:55.450Z,7.88
2022-10-08T08:31:25.156Z,9.52
2022-10-08T08:33:59.916Z,7.20
2022-10-08T08:36:28.913Z,9.00
2022-10-08T08:38:57.213Z,10.85
2022-10-08T08:41:34.512Z,9.38
2022-10-08T08:44:03.759Z,10.73
2022-10-08T08:46:37.449Z,11.10
2022-10-08T08:49:08.768Z,10.30
2022-10-08T08:51:36.529Z,9.90
2022-10-08T08:54:04.770Z,12.82
2022-10-08T08:56:32.835Z,5.50
2022-10-08T08:59:16.128Z,8.70
2022-10-08T09:01:45.475Z,8.15
2022-10-08T09:04:20.528Z,7.03
2022-10-08T09:06:49.415Z,7.22
2022-10-08T09:09:26.973Z,6.75
2022-10-08T09:11:55.188Z,11.00
2022-10-08T09:14:46.847Z,9.63
2022-10-08T09:17:19.129Z,9.10
2022-10-08T09:19:48.011Z,9.52
2022-10-08T09:22:26.375Z,9.48
2022-10-08T09:25:01.506Z,12.00
2022-10-08T09:27:49.666Z,11.45
2022-10-08T09:30:30.309Z,10.65
2022-10-08T09:32:59.516Z,12.70
2022-10-08T09:35:27.453Z,18.77
2022-10-08T09:37:57.719Z,27.83
2022-10-08T09:40:29.114Z,13.93
2022-10-08T09:43:12.008Z,14.20
2022-10-08T09:45:41.029Z,12.55
2022-10-08T09:48:25.899Z,8.88
2022-10-08T09:50:56.605Z,9.30
2022-10-08T09:53:24.733Z,9.60
2022-10-08T09:56:00.687Z,9.15
2022-10-08T09:58:30.397Z,12.07
2022-10-08T10:01:17.495Z,12.90
2022-10-08T10:03:55.694Z,11.05
2022-10-08T10:06:39.848Z,9.38
2022-10-08T10:09:20.073Z,14.10
2022-10-08T10:11:58.073Z,11.50
2022-10-08T10:14:25.411Z,10.15
2022-10-08T10:16:59.746Z,11.38
2022-10-08T10:19:31.079Z,13.20
2022-10-08T10:22:10.692Z,9.18
2022-10-08T10:24:53.377Z,8.32
2022-10-08T10:27:24.804Z,10.65
2022-10-08T10:30:07.622Z,15.90
2022-10-08T10:32:38.760Z,13.48
2022-10-08T10:35:08.654Z,9.50
2022-10-08T10:37:45.144Z,10.93
2022-10-08T10:40:20.074Z,7.38
2022-10-08T10:43:07.797Z,10.65
2022-10-08T10:45:35.572Z,7.20
2022-10-08T10:48:03.971Z,8.13
2022-10-08T10:50:40.814Z,9.93
2022-10-08T10:53:30.428Z,11.70
2022-10-08T10:56:00.938Z,9.65
2022-10-08T10:58:40.784Z,8.50
2022-10-08T11:01:15.929Z,7.43
2022-10-08T11:06:10.787Z,8.02
2022-10-08T11:08:46.102Z,8.43
2022-10-08T11:13:40.876Z,7.97
2022-10-08T11:16:26.138Z,8.38
2022-10-08T11:18:57.172Z,8.30
2022-10-08T11:21:24.521Z,5.90
2022-10-08T11:24:04.330Z,7.22
2022-10-08T11:26:36.893Z,8.63
2022-10-08T11:29:13.916Z,9.30
2022-10-08T11:31:50.927Z,7.30
2022-10-08T11:34:28.157Z,6.45
2022-10-08T11:36:58.338Z,5.57
2022-10-08T11:39:31.962Z,6.05
2022-10-08T11:42:17.457Z,8.50
2022-10-08T11:44:45.038Z,7.90
2022-10-08T11:47:31.088Z,8.25
2022-10-08T11:49:58.794Z,9.98
2022-10-08T11:52:30.037Z,8.90
2022-10-08T11:54:58.368Z,9.18
2022-10-08T11:58:06.299Z,7.07
2022-10-08T12:00:34.471Z,9.45
2022-10-08T12:03:02.233Z,5.78
2022-10-08T12:05:35.546Z,12.07
2022-10-08T12:08:04.002Z,8.90
2022-10-08T12:10:33.270Z,6.95
2022-10-08T12:13:03.920Z,9.15
2022-10-08T12:15:33.549Z,9.40
2022-10-08T12:18:01.265Z,7.72
2022-10-08T12:20:28.525Z,6.20
2022-10-08T12:23:19.443Z,9.23
2022-10-08T12:26:02.887Z,6.47
2022-10-08T12:28:30.529Z,5.75
2022-10-08T12:31:00.581Z,5.43
2022-10-08T12:33:28.996Z,8.38
2022-10-08T12:36:03.275Z,5.32
2022-10-08T12:38:30.730Z,7.83
2022-10-08T12:41:27.433Z,9.60
2022-10-08T12:43:57.753Z,4.80
2022-10-08T12:46:31.310Z,7.10
2022-10-08T12:49:01.934Z,6.13
2022-10-08T12:51:41.742Z,5.57
2022-10-08T12:54:18.156Z,5.10
2022-10-08T12:56:45.726Z,5.25
2022-10-08T12:59:13.745Z,6.50
2022-10-08T13:01:43.723Z,7.38
2022-10-08T13:04:18.947Z,9.32
2022-10-08T13:06:47.700Z,5.97
2022-10-08T13:09:25.557Z,4.90
2022-10-08T13:11:58.212Z,7.90
2022-10-08T13:14:30.610Z,8.25
2022-10-08T13:16:58.807Z,6.07
2022-10-08T13:19:44.460Z,4.43
2022-10-08T13:22:28.252Z,3.42
2022-10-08T13:24:55.542Z,3.25
2022-10-08T13:27:33.577Z,5.05
2022-10-08T13:30:01.503Z,3.20
2022-10-08T13:32:39.223Z,3.65
2022-10-08T13:35:07.202Z,2.75
2022-10-08T13:37:36.654Z,5.05
2022-10-08T13:40:04.120Z,5.00
2022-10-08T13:42:33.389Z,3.28
2022-10-08T13:45:05.948Z,4.40
2022-10-08T13:47:33.580Z,5.65
2022-10-08T13:50:02.438Z,5.45
2022-10-08T13:52:31.518Z,8.48
2022-10-08T13:55:03.767Z,7.75
2022-10-08T13:57:32.360Z,6.38
2022-10-08T13:59:59.682Z,11.65
2022-10-08T14:02:27.089Z,6.57
2022-10-08T14:04:54.700Z,3.70
2022-10-08T14:07:28.032Z,4.05
2022-10-08T14:09:56.796Z,6.80
2022-10-08T14:12:26.791Z,5.40
2022-10-08T14:14:54.889Z,4.53
2022-10-08T14:17:22.360Z,6.20
2022-10-08T14:19:50.241Z,4.25
2022-10-08T14:22:17.883Z,6.72
2022-10-08T14:24:45.264Z,4.28
2022-10-08T14:27:12.898Z,6.90
2022-10-08T14:29:40.424Z,4.68
2022-10-08T14:32:10.472Z,7.55
2022-10-08T14:34:38.266Z,4.25
2022-10-08T14:37:06.069Z,4.03
2022-10-08T14:39:33.878Z,3.90
2022-10-08T14:42:01.484Z,5.30
2022-10-08T14:44:29.146Z,6.10
2022-10-08T14:46:56.640Z,3.35
2022-10-08T14:49:24.818Z,3.65
2022-10-08T14:51:52.353Z,6.22
2022-10-08T14:54:19.889Z,6.97
2022-10-08T14:56:48.386Z,3.10
2022-10-08T14:59:15.785Z,3.85
2022-10-08T15:01:44.318Z,5.07
2022-10-08T15:04:14.534Z,3.83
2022-10-08T15:06:42.154Z,3.72
2022-10-08T15:09:11.427Z,4.78
2022-10-08T15:11:39.001Z,3.67
2022-10-08T15:14:06.761Z,4.78
2022-10-08T15:16:34.171Z,5.57
2022-10-08T15:19:02.607Z,5.32
2022-10-08T15:21:29.925Z,2.78
2022-10-08T15:23:57.459Z,3.47
2022-10-08T15:26:24.854Z,2.85
2022-10-08T15:28:53.788Z,4.63
2022-10-08T15:31:23.977Z,3.50
2022-10-08T15:33:52.347Z,3.53
2022-10-08T15:36:20.541Z,3.75
2022-10-08T15:38:48.534Z,5.47
2022-10-08T15:41:19.791Z,4.78
2022-10-08T15:43:47.331Z,5.28
2022-10-08T15:46:18.412Z,2.67
2022-10-08T15:48:56.579Z,1.85
2022-10-08T15:51:24.647Z,2.85
2022-10-08T15:53:52.367Z,1.98
2022-10-08T15:56:20.000Z,5.55
2022-10-08T15:58:51.557Z,2.67
2022-10-08T16:01:20.744Z,5.53
2022-10-08T16:03:49.206Z,2.65
2022-10-08T16:06:19.097Z,2.17
2022-10-08T16:08:46.436Z,2.75
2022-10-08T16:11:17.807Z,6.03
2022-10-08T16:13:46.052Z,4.97
2022-10-08T16:16:15.478Z,4.72
2022-10-08T16:18:45.929Z,7.55
2022-10-08T16:21:14.405Z,3.97
2022-10-08T16:23:41.725Z,2.40
2022-10-08T16:26:12.081Z,3.15
2022-10-08T16:28:41.360Z,6.50
2022-10-08T16:31:11.429Z,6.53
2022-10-08T16:33:40.199Z,8.63
2022-10-08T16:36:08.440Z,4.55
2022-10-08T16:38:36.798Z,1.83
2022-10-08T16:41:31.057Z,2.13
2022-10-08T16:43:59.495Z,7.03
2022-10-08T16:46:29.206Z,3.67
2022-10-08T16:48:57.624Z,3.10
2022-10-08T16:51:26.202Z,4.53
2022-10-08T16:53:54.925Z,8.05
2022-10-08T16:56:22.895Z,4.93
2022-10-08T16:58:57.716Z,2.30
2022-10-08T17:01:25.994Z,3.10
2022-10-08T17:03:54.999Z,2.72
2022-10-08T17:06:23.140Z,3.72
2022-10-08T17:08:51.514Z,4.07
2022-10-08T17:11:19.719Z,4.35
2022-10-08T17:13:48.998Z,3.72
2022-10-08T17:16:17.128Z,1.52
2022-10-08T17:18:44.894Z,1.30
2022-10-08T17:21:13.082Z,3.83
2022-10-08T17:23:40.596Z,3.17
2022-10-08T17:26:13.532Z,4.00
2022-10-08T17:28:42.343Z,3.33
2022-10-08T17:31:11.696Z,7.07
2022-10-08T17:33:39.280Z,7.32
2022-10-08T17:36:11.863Z,4.68
2022-10-08T17:38:40.929Z,3.10
2022-10-08T17:41:14.176Z,4.97
2022-10-08T17:43:42.411Z,3.33
2022-10-08T17:46:10.740Z,2.72
2022-10-08T17:48:38.285Z,3.97
2022-10-08T17:51:06.807Z,3.88
2022-10-08T17:53:34.229Z,3.17
2022-10-08T17:56:03.952Z,2.65
2022-10-08T17:58:31.585Z,3.53
2022-10-08T18:01:13.306Z,2.55
2022-10-08T18:03:41.381Z,5.90
2022-10-08T18:06:10.592Z,3.35
2022-10-08T18:08:38.387Z,3.33
2022-10-08T18:11:06.949Z,4.60
2022-10-08T18:13:37.351Z,2.28
2022-10-08T18:16:09.646Z,3.42
2022-10-08T18:18:37.055Z,4.60
2022-10-08T18:21:05.656Z,3.45
2022-10-08T18:23:33.747Z,3.15
2022-10-08T18:26:08.738Z,7.10
2022-10-08T18:28:36.659Z,4.45
2022-10-08T18:31:07.540Z,7.50
2022-10-08T18:33:39.235Z,3.63
2022-10-08T18:36:14.004Z,2.92
2022-10-08T18:38:42.575Z,3.17
2022-10-08T18:41:20.207Z,3.40
2022-10-08T18:43:48.561Z,2.42
2022-10-08T18:46:16.968Z,3.60
2022-10-08T18:48:44.650Z,2.70
2022-10-08T18:51:17.094Z,2.78
2022-10-08T18:53:46.699Z,3.03
2022-10-08T18:56:15.438Z,6.65
2022-10-08T18:58:46.229Z,5.05
2022-10-08T19:01:35.357Z,2.85
2022-10-08T19:04:03.861Z,3.45
2022-10-08T19:06:33.809Z,4.63
2022-10-08T19:09:01.179Z,5.30
2022-10-08T19:11:33.515Z,5.80
2022-10-08T19:14:02.075Z,2.45
2022-10-08T19:16:31.070Z,3.05
2022-10-08T19:19:05.268Z,2.72
2022-10-08T19:21:34.649Z,3.17
2022-10-08T19:24:02.644Z,4.13
2022-10-08T19:26:33.587Z,5.72
2022-10-08T19:29:01.287Z,5.45
2022-10-08T19:31:31.028Z,4.25
2022-10-08T19:34:07.530Z,7.53
2022-10-08T19:36:38.730Z,4.32
2022-10-08T19:39:13.223Z,5.30
2022-10-08T19:41:41.660Z,4.63
2022-10-08T19:44:09.537Z,5.28
2022-10-08T19:46:37.191Z,4.97
2022-10-08T19:49:06.386Z,2.70
2022-10-08T19:51:34.228Z,3.53
2022-10-08T19:54:02.622Z,4.18
2022-10-08T19:56:31.160Z,3.42
2022-10-08T19:58:58.999Z,5.45
2022-10-08T20:01:28.171Z,4.07
2022-10-08T20:03:56.549Z,3.03
2022-10-08T20:06:25.376Z,4.75
2022-10-08T20:08:57.154Z,4.55
2022-10-08T20:11:25.193Z,6.15
2022-10-08T20:13:53.568Z,5.90
2022-10-08T20:16:22.651Z,4.25
2022-10-08T20:18:54.556Z,5.03
2022-10-08T20:21:22.672Z,3.67
2022-10-08T20:23:50.774Z,2.60
2022-10-08T20:26:18.234Z,3.53
2022-10-08T20:28:47.057Z,4.65
2022-10-08T20:31:18.121Z,5.47
2022-10-08T20:33:46.245Z,5.32
2022-10-08T20:36:15.283Z,4.50
2022-10-08T20:38:43.612Z,3.70
2022-10-08T20:41:11.373Z,4.15
2022-10-08T20:43:39.639Z,5.85
2022-10-08T20:46:12.351Z,3.75
2022-10-08T20:48:40.991Z,6.05
2022-10-08T20:51:09.752Z,4.80
2022-10-08T20:53:37.311Z,6.07
2022-10-08T20:56:07.105Z,4.88
2022-10-08T20:58:35.136Z,5.18
2022-10-08T21:01:07.099Z,8.07
2022-10-08T21:03:36.424Z,4.85
2022-10-08T21:06:08.974Z,9.98
2022-10-08T21:08:37.784Z,9.05
2022-10-08T21:11:06.864Z,11.30
2022-10-08T21:13:34.666Z,8.80
2022-10-08T21:16:10.395Z,7.88
2022-10-08T21:18:37.979Z,9.23
2022-10-08T21:21:06.763Z,7.32
2022-10-08T21:23:34.331Z,8.10
2022-10-08T21:26:07.984Z,7.32
2022-10-08T21:28:35.497Z,7.68
2022-10-08T21:31:04.461Z,8.65
2022-10-08T21:33:33.056Z,8.95
2022-10-08T21:36:00.933Z,6.88
2022-10-08T21:38:28.538Z,8.38
2022-10-08T21:41:00.052Z,19.55
2022-10-08T21:43:31.390Z,9.95
2022-10-08T21:46:00.272Z,10.18
2022-10-08T21:48:28.704Z,7.65
2022-10-08T21:51:16.265Z,8.73
2022-10-08T21:53:48.945Z,8.20
2022-10-08T21:56:18.235Z,7.75
2022-10-08T21:58:47.591Z,8.40
2022-10-08T22:01:21.404Z,7.45
2022-10-08T22:03:48.881Z,6.60
2022-10-08T22:06:16.705Z,6.22
2022-10-08T22:08:44.074Z,7.60
2022-10-08T22:11:12.368Z,6.90
2022-10-08T22:13:39.750Z,8.68
2022-10-08T22:16:09.655Z,7.25
2022-10-08T22:18:36.990Z,6.10
2022-10-08T22:21:09.068Z,7.47
2022-10-08T22:23:36.715Z,5.82
2022-10-08T22:26:14.914Z,7.07
2022-10-08T22:28:42.737Z,4.80
2022-10-08T22:31:11.820Z,8.57
2022-10-08T22:33:39.489Z,5.95
2022-10-08T22:36:08.088Z,7.47
2022-10-08T22:38:37.924Z,6.55
2022-10-08T22:41:06.908Z,5.13
2022-10-08T22:43:34.720Z,8.55
2022-10-08T22:46:03.203Z,6.88
2022-10-08T22:48:31.795Z,8.57
2022-10-08T22:51:03.077Z,5.68
2022-10-08T22:53:30.668Z,5.82
2022-10-08T22:55:58.326Z,5.88
2022-10-08T22:58:25.896Z,6.95
2022-10-08T23:01:20.501Z,7.78
2022-10-08T23:03:48.317Z,6.05
2022-10-08T23:06:20.306Z,5.68
2022-10-08T23:08:49.092Z,7.38
2022-10-08T23:11:17.814Z,6.85
2022-10-08T23:13:45.755Z,4.88
2022-10-08T23:16:14.221Z,4.65
2022-10-08T23:18:43.604Z,3.65
2022-10-08T23:21:16.860Z,5.45
2022-10-08T23:23:44.952Z,4.80
2022-10-08T23:26:12.788Z,3.67
2022-10-08T23:28:42.809Z,4.57
2022-10-08T23:31:15.637Z,6.07
2022-10-08T23:33:45.178Z,6.00
2022-10-08T23:36:14.004Z,3.35
2022-10-08T23:38:41.593Z,3.22
2022-10-08T23:41:09.702Z,4.43
2022-10-08T23:43:38.906Z,3.00
2022-10-08T23:46:07.679Z,3.33
2022-10-08T23:48:35.482Z,4.00
2022-10-08T23:51:03.296Z,5.32
2022-10-08T23:53:31.929Z,5.40
2022-10-08T23:55:59.329Z,3.33
2022-10-08T23:58:27.038Z,4.85
